Crystal Beach, Vermont
Current Conditions -  °F | °C
As of 10:55 PM on Wednesday 22 Oct 2014 (Local Time) from KRUT Reporting Station
Overcast Overcast  
Wind Chill: 50°   Ceiling: 2500
Heat Index: 50°   Visibility: 10mi
Dew Point: 43°   Wind: 14mph
Humidity: 76%   Direction: 350°N
Pressure: 29.97"   Gusts: 22mph
Location:  43.6297°N, 73.1988°W
Report Text: KRUT 230255Z 35012G19KT 10SM OVC025 10/06 A2997 RMK AO1 57014
Loading
Personal Weather Stations






























Interactive Weather Map
Tropical Storm Tracking
New forecast layout! Learn more

10-Day Weather Forecast

Advertisements
Track Severe Weather on mobile